sensor_id;sensor_type;location;lat;lon;timestamp;P1;durP1;ratioP1;P2;durP2;ratioP2
72649;SDS011;61467;50.674;4.618;2023-03-23T00:01:26;6.95;;;3.08;;
72649;SDS011;61467;50.674;4.618;2023-03-23T00:03:56;7.50;;;3.40;;
72649;SDS011;61467;50.674;4.618;2023-03-23T00:06:25;6.13;;;2.93;;
72649;SDS011;61467;50.674;4.618;2023-03-23T00:08:59;8.43;;;3.20;;
72649;SDS011;61467;50.674;4.618;2023-03-23T00:11:28;6.30;;;2.78;;
72649;SDS011;61467;50.674;4.618;2023-03-23T00:13:59;9.35;;;3.58;;
72649;SDS011;61467;50.674;4.618;2023-03-23T00:16:27;7.72;;;3.00;;
72649;SDS011;61467;50.674;4.618;2023-03-23T00:18:57;9.13;;;3.90;;
72649;SDS011;61467;50.674;4.618;2023-03-23T00:21:25;8.57;;;3.45;;
72649;SDS011;61467;50.674;4.618;2023-03-23T00:23:58;7.50;;;3.40;;
72649;SDS011;61467;50.674;4.618;2023-03-23T00:26:25;10.20;;;3.30;;
72649;SDS011;61467;50.674;4.618;2023-03-23T00:28:55;7.28;;;3.60;;
72649;SDS011;61467;50.674;4.618;2023-03-23T00:31:25;8.23;;;3.60;;
72649;SDS011;61467;50.674;4.618;2023-03-23T00:33:56;7.07;;;2.90;;
72649;SDS011;61467;50.674;4.618;2023-03-23T00:36:26;8.02;;;3.53;;
72649;SDS011;61467;50.674;4.618;2023-03-23T00:38:53;9.70;;;3.20;;
72649;SDS011;61467;50.674;4.618;2023-03-23T00:41:23;7.10;;;3.33;;
72649;SDS011;61467;50.674;4.618;2023-03-23T00:43:52;7.13;;;3.03;;
72649;SDS011;61467;50.674;4.618;2023-03-23T00:46:20;10.18;;;3.53;;
72649;SDS011;61467;50.674;4.618;2023-03-23T00:48:47;8.30;;;3.42;;
72649;SDS011;61467;50.674;4.618;2023-03-23T00:51:15;9.52;;;3.70;;
72649;SDS011;61467;50.674;4.618;2023-03-23T00:53:43;8.55;;;3.13;;
72649;SDS011;61467;50.674;4.618;2023-03-23T00:56:10;7.70;;;3.47;;
72649;SDS011;61467;50.674;4.618;2023-03-23T00:58:37;8.27;;;3.17;;
72649;SDS011;61467;50.674;4.618;2023-03-23T01:01:05;8.63;;;3.67;;
72649;SDS011;61467;50.674;4.618;2023-03-23T01:03:33;9.52;;;3.50;;
72649;SDS011;61467;50.674;4.618;2023-03-23T01:06:04;7.00;;;3.38;;
72649;SDS011;61467;50.674;4.618;2023-03-23T01:08:37;6.93;;;3.50;;
72649;SDS011;61467;50.674;4.618;2023-03-23T01:11:10;7.80;;;3.30;;
72649;SDS011;61467;50.674;4.618;2023-03-23T01:13:38;8.85;;;4.10;;
72649;SDS011;61467;50.674;4.618;2023-03-23T01:16:05;8.23;;;3.60;;
72649;SDS011;61467;50.674;4.618;2023-03-23T01:18:34;7.57;;;3.40;;
72649;SDS011;61467;50.674;4.618;2023-03-23T01:21:03;9.27;;;3.47;;
72649;SDS011;61467;50.674;4.618;2023-03-23T01:23:31;8.20;;;3.55;;
72649;SDS011;61467;50.674;4.618;2023-03-23T01:26:01;8.05;;;3.92;;
72649;SDS011;61467;50.674;4.618;2023-03-23T01:28:29;8.60;;;3.55;;
72649;SDS011;61467;50.674;4.618;2023-03-23T01:30:58;9.18;;;3.60;;
72649;SDS011;61467;50.674;4.618;2023-03-23T01:33:26;7.07;;;3.30;;
72649;SDS011;61467;50.674;4.618;2023-03-23T01:35:55;8.57;;;3.22;;
72649;SDS011;61467;50.674;4.618;2023-03-23T01:38:21;7.20;;;3.35;;
72649;SDS011;61467;50.674;4.618;2023-03-23T01:40:48;7.55;;;3.15;;
72649;SDS011;61467;50.674;4.618;2023-03-23T01:43:15;6.60;;;3.13;;
72649;SDS011;61467;50.674;4.618;2023-03-23T01:45:42;7.43;;;3.17;;
72649;SDS011;61467;50.674;4.618;2023-03-23T01:48:11;7.55;;;2.92;;
72649;SDS011;61467;50.674;4.618;2023-03-23T01:50:43;6.15;;;2.67;;
72649;SDS011;61467;50.674;4.618;2023-03-23T01:53:17;6.15;;;2.92;;
72649;SDS011;61467;50.674;4.618;2023-03-23T01:55:45;6.78;;;3.08;;
72649;SDS011;61467;50.674;4.618;2023-03-23T01:58:15;7.70;;;3.00;;
72649;SDS011;61467;50.674;4.618;2023-03-23T02:00:45;6.32;;;2.63;;
72649;SDS011;61467;50.674;4.618;2023-03-23T02:03:13;6.40;;;2.80;;
72649;SDS011;61467;50.674;4.618;2023-03-23T02:05:42;7.82;;;3.13;;
72649;SDS011;61467;50.674;4.618;2023-03-23T02:08:09;7.60;;;2.78;;
72649;SDS011;61467;50.674;4.618;2023-03-23T02:10:40;6.30;;;2.73;;
72649;SDS011;61467;50.674;4.618;2023-03-23T02:13:07;6.53;;;2.53;;
72649;SDS011;61467;50.674;4.618;2023-03-23T02:15:43;6.38;;;2.70;;
72649;SDS011;61467;50.674;4.618;2023-03-23T02:18:17;6.70;;;2.50;;
72649;SDS011;61467;50.674;4.618;2023-03-23T02:24:13;6.53;;;2.30;;
72649;SDS011;61467;50.674;4.618;2023-03-23T02:27:07;6.90;;;2.65;;
72649;SDS011;61467;50.674;4.618;2023-03-23T02:29:48;7.22;;;2.78;;
72649;SDS011;61467;50.674;4.618;2023-03-23T02:35:35;7.65;;;2.78;;
72649;SDS011;61467;50.674;4.618;2023-03-23T02:38:06;6.00;;;2.30;;
72649;SDS011;61467;50.674;4.618;2023-03-23T02:40:36;5.88;;;2.50;;
72649;SDS011;61467;50.674;4.618;2023-03-23T02:43:07;6.68;;;2.70;;
72649;SDS011;61467;50.674;4.618;2023-03-23T02:45:38;7.07;;;2.47;;
72649;SDS011;61467;50.674;4.618;2023-03-23T02:48:07;7.72;;;2.30;;
72649;SDS011;61467;50.674;4.618;2023-03-23T02:50:38;6.13;;;2.50;;
72649;SDS011;61467;50.674;4.618;2023-03-23T02:53:09;5.97;;;2.60;;
72649;SDS011;61467;50.674;4.618;2023-03-23T02:55:38;6.70;;;2.53;;
72649;SDS011;61467;50.674;4.618;2023-03-23T02:58:07;7.05;;;2.55;;
72649;SDS011;61467;50.674;4.618;2023-03-23T03:00:34;6.90;;;2.50;;
72649;SDS011;61467;50.674;4.618;2023-03-23T03:03:02;5.43;;;2.63;;
72649;SDS011;61467;50.674;4.618;2023-03-23T03:05:34;6.15;;;2.40;;
72649;SDS011;61467;50.674;4.618;2023-03-23T03:08:11;6.13;;;2.42;;
72649;SDS011;61467;50.674;4.618;2023-03-23T03:10:46;6.10;;;2.30;;
72649;SDS011;61467;50.674;4.618;2023-03-23T03:16:11;7.23;;;2.60;;
72649;SDS011;61467;50.674;4.618;2023-03-23T03:18:46;6.22;;;2.25;;
72649;SDS011;61467;50.674;4.618;2023-03-23T03:21:17;6.03;;;2.13;;
72649;SDS011;61467;50.674;4.618;2023-03-23T03:23:54;6.68;;;2.28;;
72649;SDS011;61467;50.674;4.618;2023-03-23T03:26:24;6.55;;;2.17;;
72649;SDS011;61467;50.674;4.618;2023-03-23T03:28:53;5.37;;;2.10;;
72649;SDS011;61467;50.674;4.618;2023-03-23T03:31:21;6.03;;;2.20;;
72649;SDS011;61467;50.674;4.618;2023-03-23T03:33:52;7.22;;;2.40;;
72649;SDS011;61467;50.674;4.618;2023-03-23T03:36:20;6.60;;;2.58;;
72649;SDS011;61467;50.674;4.618;2023-03-23T03:38:50;6.88;;;2.42;;
72649;SDS011;61467;50.674;4.618;2023-03-23T03:41:19;11.43;;;2.90;;
72649;SDS011;61467;50.674;4.618;2023-03-23T03:43:46;7.40;;;2.03;;
72649;SDS011;61467;50.674;4.618;2023-03-23T03:46:13;6.13;;;2.15;;
72649;SDS011;61467;50.674;4.618;2023-03-23T03:48:40;8.13;;;2.70;;
72649;SDS011;61467;50.674;4.618;2023-03-23T03:51:07;7.15;;;2.15;;
72649;SDS011;61467;50.674;4.618;2023-03-23T03:53:34;6.90;;;2.23;;
72649;SDS011;61467;50.674;4.618;2023-03-23T03:56:01;6.28;;;2.38;;
72649;SDS011;61467;50.674;4.618;2023-03-23T03:58:31;7.80;;;2.30;;
72649;SDS011;61467;50.674;4.618;2023-03-23T04:00:58;5.72;;;2.08;;
72649;SDS011;61467;50.674;4.618;2023-03-23T04:03:25;5.65;;;2.10;;
72649;SDS011;61467;50.674;4.618;2023-03-23T04:05:52;8.13;;;2.27;;
72649;SDS011;61467;50.674;4.618;2023-03-23T04:08:21;7.07;;;2.13;;
72649;SDS011;61467;50.674;4.618;2023-03-23T04:10:48;7.80;;;2.22;;
72649;SDS011;61467;50.674;4.618;2023-03-23T04:13:15;6.43;;;1.92;;
72649;SDS011;61467;50.674;4.618;2023-03-23T04:15:44;7.60;;;1.92;;
72649;SDS011;61467;50.674;4.618;2023-03-23T04:18:11;9.30;;;2.03;;
72649;SDS011;61467;50.674;4.618;2023-03-23T04:20:40;11.98;;;2.17;;
72649;SDS011;61467;50.674;4.618;2023-03-23T04:23:07;7.15;;;1.67;;
72649;SDS011;61467;50.674;4.618;2023-03-23T04:25:34;5.80;;;1.65;;
72649;SDS011;61467;50.674;4.618;2023-03-23T04:28:01;9.63;;;1.95;;
72649;SDS011;61467;50.674;4.618;2023-03-23T04:30:28;7.10;;;2.00;;
72649;SDS011;61467;50.674;4.618;2023-03-23T04:32:58;5.22;;;1.80;;
72649;SDS011;61467;50.674;4.618;2023-03-23T04:35:26;4.97;;;1.23;;
72649;SDS011;61467;50.674;4.618;2023-03-23T04:37:54;6.60;;;1.67;;
72649;SDS011;61467;50.674;4.618;2023-03-23T04:40:22;5.85;;;1.40;;
72649;SDS011;61467;50.674;4.618;2023-03-23T04:42:49;8.03;;;1.47;;
72649;SDS011;61467;50.674;4.618;2023-03-23T04:45:18;6.35;;;1.50;;
72649;SDS011;61467;50.674;4.618;2023-03-23T04:47:47;7.43;;;1.58;;
72649;SDS011;61467;50.674;4.618;2023-03-23T04:50:20;4.70;;;1.25;;
72649;SDS011;61467;50.674;4.618;2023-03-23T04:52:49;5.75;;;1.50;;
72649;SDS011;61467;50.674;4.618;2023-03-23T04:55:19;6.57;;;1.73;;
72649;SDS011;61467;50.674;4.618;2023-03-23T04:57:46;5.57;;;1.42;;
72649;SDS011;61467;50.674;4.618;2023-03-23T05:00:14;5.50;;;1.63;;
72649;SDS011;61467;50.674;4.618;2023-03-23T05:02:42;5.03;;;1.58;;
72649;SDS011;61467;50.674;4.618;2023-03-23T05:05:09;5.88;;;1.77;;
72649;SDS011;61467;50.674;4.618;2023-03-23T05:07:39;6.33;;;2.00;;
72649;SDS011;61467;50.674;4.618;2023-03-23T05:10:07;6.45;;;2.13;;
72649;SDS011;61467;50.674;4.618;2023-03-23T05:12:36;7.72;;;2.03;;
72649;SDS011;61467;50.674;4.618;2023-03-23T05:15:03;4.43;;;1.35;;
72649;SDS011;61467;50.674;4.618;2023-03-23T05:17:32;4.68;;;1.52;;
72649;SDS011;61467;50.674;4.618;2023-03-23T05:19:59;7.97;;;2.40;;
72649;SDS011;61467;50.674;4.618;2023-03-23T05:22:26;4.85;;;1.63;;
72649;SDS011;61467;50.674;4.618;2023-03-23T05:24:55;7.53;;;1.70;;
72649;SDS011;61467;50.674;4.618;2023-03-23T05:27:22;6.30;;;1.50;;
72649;SDS011;61467;50.674;4.618;2023-03-23T05:29:48;6.80;;;1.60;;
72649;SDS011;61467;50.674;4.618;2023-03-23T05:32:16;5.73;;;1.40;;
72649;SDS011;61467;50.674;4.618;2023-03-23T05:34:44;6.10;;;1.45;;
72649;SDS011;61467;50.674;4.618;2023-03-23T05:37:11;6.47;;;1.70;;
72649;SDS011;61467;50.674;4.618;2023-03-23T05:39:38;7.00;;;1.65;;
72649;SDS011;61467;50.674;4.618;2023-03-23T05:42:07;7.35;;;1.60;;
72649;SDS011;61467;50.674;4.618;2023-03-23T05:44:33;5.87;;;1.57;;
72649;SDS011;61467;50.674;4.618;2023-03-23T05:47:00;7.85;;;1.60;;
72649;SDS011;61467;50.674;4.618;2023-03-23T05:49:28;5.75;;;1.50;;
72649;SDS011;61467;50.674;4.618;2023-03-23T05:51:55;6.47;;;1.38;;
72649;SDS011;61467;50.674;4.618;2023-03-23T05:54:22;6.88;;;1.55;;
72649;SDS011;61467;50.674;4.618;2023-03-23T05:56:48;6.17;;;1.60;;
72649;SDS011;61467;50.674;4.618;2023-03-23T05:59:17;6.68;;;1.60;;
72649;SDS011;61467;50.674;4.618;2023-03-23T06:01:43;6.13;;;1.55;;
72649;SDS011;61467;50.674;4.618;2023-03-23T06:04:10;6.50;;;1.65;;
72649;SDS011;61467;50.674;4.618;2023-03-23T06:06:39;5.78;;;1.67;;
72649;SDS011;61467;50.674;4.618;2023-03-23T06:09:08;8.33;;;1.50;;
72649;SDS011;61467;50.674;4.618;2023-03-23T06:11:36;6.00;;;1.50;;
72649;SDS011;61467;50.674;4.618;2023-03-23T06:14:03;6.45;;;1.55;;
72649;SDS011;61467;50.674;4.618;2023-03-23T06:16:31;6.50;;;1.70;;
72649;SDS011;61467;50.674;4.618;2023-03-23T06:18:58;6.25;;;1.45;;
72649;SDS011;61467;50.674;4.618;2023-03-23T06:21:27;6.40;;;1.50;;
72649;SDS011;61467;50.674;4.618;2023-03-23T06:23:54;7.03;;;1.48;;
72649;SDS011;61467;50.674;4.618;2023-03-23T06:26:21;5.78;;;1.70;;
72649;SDS011;61467;50.674;4.618;2023-03-23T06:28:52;8.70;;;1.50;;
72649;SDS011;61467;50.674;4.618;2023-03-23T06:31:19;8.55;;;1.65;;
72649;SDS011;61467;50.674;4.618;2023-03-23T06:33:48;5.67;;;1.70;;
72649;SDS011;61467;50.674;4.618;2023-03-23T06:36:15;6.78;;;1.23;;
72649;SDS011;61467;50.674;4.618;2023-03-23T06:38:42;7.45;;;1.67;;
72649;SDS011;61467;50.674;4.618;2023-03-23T06:41:10;5.72;;;1.30;;
72649;SDS011;61467;50.674;4.618;2023-03-23T06:43:37;5.20;;;1.60;;
72649;SDS011;61467;50.674;4.618;2023-03-23T06:46:04;8.83;;;1.90;;
72649;SDS011;61467;50.674;4.618;2023-03-23T06:48:31;9.68;;;1.42;;
72649;SDS011;61467;50.674;4.618;2023-03-23T06:51:00;7.78;;;1.30;;
72649;SDS011;61467;50.674;4.618;2023-03-23T06:53:27;5.57;;;1.50;;
72649;SDS011;61467;50.674;4.618;2023-03-23T06:55:54;6.32;;;1.20;;
72649;SDS011;61467;50.674;4.618;2023-03-23T06:58:21;7.73;;;1.90;;
72649;SDS011;61467;50.674;4.618;2023-03-23T07:00:52;6.38;;;1.35;;
72649;SDS011;61467;50.674;4.618;2023-03-23T07:03:20;8.40;;;1.52;;
72649;SDS011;61467;50.674;4.618;2023-03-23T07:05:47;6.38;;;1.85;;
72649;SDS011;61467;50.674;4.618;2023-03-23T07:08:17;7.53;;;1.90;;
72649;SDS011;61467;50.674;4.618;2023-03-23T07:10:44;5.60;;;1.40;;
72649;SDS011;61467;50.674;4.618;2023-03-23T07:13:11;4.55;;;1.10;;
72649;SDS011;61467;50.674;4.618;2023-03-23T07:15:38;4.45;;;1.33;;
72649;SDS011;61467;50.674;4.618;2023-03-23T07:18:05;8.32;;;1.38;;
72649;SDS011;61467;50.674;4.618;2023-03-23T07:20:32;8.50;;;1.40;;
72649;SDS011;61467;50.674;4.618;2023-03-23T07:22:59;6.80;;;1.30;;
72649;SDS011;61467;50.674;4.618;2023-03-23T07:25:28;7.13;;;1.42;;
72649;SDS011;61467;50.674;4.618;2023-03-23T07:27:55;7.90;;;1.40;;
72649;SDS011;61467;50.674;4.618;2023-03-23T07:30:22;7.60;;;1.63;;
72649;SDS011;61467;50.674;4.618;2023-03-23T07:32:48;7.05;;;1.88;;
72649;SDS011;61467;50.674;4.618;2023-03-23T07:35:15;7.93;;;1.70;;
72649;SDS011;61467;50.674;4.618;2023-03-23T07:37:42;7.85;;;1.50;;
72649;SDS011;61467;50.674;4.618;2023-03-23T07:40:10;7.93;;;1.70;;
72649;SDS011;61467;50.674;4.618;2023-03-23T07:42:42;4.68;;;1.60;;
72649;SDS011;61467;50.674;4.618;2023-03-23T07:45:11;4.78;;;1.60;;
72649;SDS011;61467;50.674;4.618;2023-03-23T07:47:39;6.30;;;1.70;;
72649;SDS011;61467;50.674;4.618;2023-03-23T07:50:07;7.75;;;1.67;;
72649;SDS011;61467;50.674;4.618;2023-03-23T07:52:35;8.63;;;1.88;;
72649;SDS011;61467;50.674;4.618;2023-03-23T07:55:03;6.97;;;1.75;;
72649;SDS011;61467;50.674;4.618;2023-03-23T07:57:34;9.57;;;1.92;;
72649;SDS011;61467;50.674;4.618;2023-03-23T08:00:06;10.87;;;2.07;;
72649;SDS011;61467;50.674;4.618;2023-03-23T08:02:37;5.97;;;1.58;;
72649;SDS011;61467;50.674;4.618;2023-03-23T08:05:04;6.10;;;1.70;;
72649;SDS011;61467;50.674;4.618;2023-03-23T08:07:33;6.50;;;1.80;;
72649;SDS011;61467;50.674;4.618;2023-03-23T08:10:00;5.53;;;1.75;;
72649;SDS011;61467;50.674;4.618;2023-03-23T08:12:28;6.00;;;1.70;;
72649;SDS011;61467;50.674;4.618;2023-03-23T08:14:55;6.18;;;1.90;;
72649;SDS011;61467;50.674;4.618;2023-03-23T08:17:26;7.18;;;1.80;;
72649;SDS011;61467;50.674;4.618;2023-03-23T08:19:54;4.03;;;1.20;;
72649;SDS011;61467;50.674;4.618;2023-03-23T08:22:23;3.92;;;1.10;;
72649;SDS011;61467;50.674;4.618;2023-03-23T08:24:50;3.60;;;1.10;;
72649;SDS011;61467;50.674;4.618;2023-03-23T08:27:19;5.20;;;1.13;;
72649;SDS011;61467;50.674;4.618;2023-03-23T08:29:46;4.78;;;1.00;;
72649;SDS011;61467;50.674;4.618;2023-03-23T08:32:18;6.70;;;1.85;;
72649;SDS011;61467;50.674;4.618;2023-03-23T08:34:46;5.78;;;1.00;;
72649;SDS011;61467;50.674;4.618;2023-03-23T08:37:14;6.73;;;2.37;;
72649;SDS011;61467;50.674;4.618;2023-03-23T08:39:42;5.93;;;1.08;;
72649;SDS011;61467;50.674;4.618;2023-03-23T08:42:11;2.53;;;0.70;;
72649;SDS011;61467;50.674;4.618;2023-03-23T08:44:39;4.43;;;0.90;;
72649;SDS011;61467;50.674;4.618;2023-03-23T08:47:06;6.68;;;1.00;;
72649;SDS011;61467;50.674;4.618;2023-03-23T08:49:33;3.17;;;0.80;;
72649;SDS011;61467;50.674;4.618;2023-03-23T08:52:02;6.20;;;1.00;;
72649;SDS011;61467;50.674;4.618;2023-03-23T08:54:29;3.47;;;0.90;;
72649;SDS011;61467;50.674;4.618;2023-03-23T08:56:59;4.80;;;0.90;;
72649;SDS011;61467;50.674;4.618;2023-03-23T08:59:28;4.88;;;1.27;;
72649;SDS011;61467;50.674;4.618;2023-03-23T09:01:55;5.10;;;0.87;;
72649;SDS011;61467;50.674;4.618;2023-03-23T09:04:21;4.55;;;0.85;;
72649;SDS011;61467;50.674;4.618;2023-03-23T09:06:48;2.65;;;0.73;;
72649;SDS011;61467;50.674;4.618;2023-03-23T09:09:19;4.03;;;0.90;;
72649;SDS011;61467;50.674;4.618;2023-03-23T09:11:47;3.45;;;0.80;;
72649;SDS011;61467;50.674;4.618;2023-03-23T09:14:15;4.37;;;0.80;;
72649;SDS011;61467;50.674;4.618;2023-03-23T09:16:42;4.45;;;0.90;;
72649;SDS011;61467;50.674;4.618;2023-03-23T09:19:10;6.07;;;1.10;;
72649;SDS011;61467;50.674;4.618;2023-03-23T09:21:37;3.45;;;0.90;;
72649;SDS011;61467;50.674;4.618;2023-03-23T09:24:04;3.90;;;1.13;;
72649;SDS011;61467;50.674;4.618;2023-03-23T09:26:33;5.10;;;1.10;;
72649;SDS011;61467;50.674;4.618;2023-03-23T09:29:00;4.80;;;0.95;;
72649;SDS011;61467;50.674;4.618;2023-03-23T09:31:27;3.20;;;0.82;;
72649;SDS011;61467;50.674;4.618;2023-03-23T09:33:54;3.58;;;1.13;;
72649;SDS011;61467;50.674;4.618;2023-03-23T09:36:22;3.10;;;1.10;;
72649;SDS011;61467;50.674;4.618;2023-03-23T09:38:51;3.97;;;1.20;;
72649;SDS011;61467;50.674;4.618;2023-03-23T09:41:24;4.88;;;1.00;;
72649;SDS011;61467;50.674;4.618;2023-03-23T09:44:09;4.05;;;1.10;;
72649;SDS011;61467;50.674;4.618;2023-03-23T09:46:47;4.35;;;1.33;;
72649;SDS011;61467;50.674;4.618;2023-03-23T09:49:21;6.18;;;1.50;;
72649;SDS011;61467;50.674;4.618;2023-03-23T09:51:53;4.87;;;1.30;;
72649;SDS011;61467;50.674;4.618;2023-03-23T09:54:24;7.43;;;1.90;;
72649;SDS011;61467;50.674;4.618;2023-03-23T09:56:55;5.68;;;1.80;;
72649;SDS011;61467;50.674;4.618;2023-03-23T09:59:26;7.47;;;1.80;;
72649;SDS011;61467;50.674;4.618;2023-03-23T10:01:58;6.50;;;2.20;;
72649;SDS011;61467;50.674;4.618;2023-03-23T10:04:43;6.27;;;2.33;;
72649;SDS011;61467;50.674;4.618;2023-03-23T10:07:12;6.07;;;2.40;;
72649;SDS011;61467;50.674;4.618;2023-03-23T10:09:41;5.53;;;2.35;;
72649;SDS011;61467;50.674;4.618;2023-03-23T10:12:13;6.72;;;2.28;;
72649;SDS011;61467;50.674;4.618;2023-03-23T10:14:50;7.82;;;2.38;;
72649;SDS011;61467;50.674;4.618;2023-03-23T10:17:27;7.37;;;2.57;;
72649;SDS011;61467;50.674;4.618;2023-03-23T10:19:57;6.78;;;2.50;;
72649;SDS011;61467;50.674;4.618;2023-03-23T10:22:41;7.95;;;2.20;;
72649;SDS011;61467;50.674;4.618;2023-03-23T10:25:15;7.07;;;2.47;;
72649;SDS011;61467;50.674;4.618;2023-03-23T10:27:47;6.95;;;2.20;;
72649;SDS011;61467;50.674;4.618;2023-03-23T10:30:21;5.60;;;1.80;;
72649;SDS011;61467;50.674;4.618;2023-03-23T10:32:53;6.43;;;2.10;;
72649;SDS011;61467;50.674;4.618;2023-03-23T10:35:26;5.55;;;2.05;;
72649;SDS011;61467;50.674;4.618;2023-03-23T10:37:59;8.10;;;2.70;;
72649;SDS011;61467;50.674;4.618;2023-03-23T10:40:29;7.97;;;2.38;;
72649;SDS011;61467;50.674;4.618;2023-03-23T10:43:01;6.23;;;2.00;;
72649;SDS011;61467;50.674;4.618;2023-03-23T10:45:30;10.68;;;2.50;;
72649;SDS011;61467;50.674;4.618;2023-03-23T10:48:01;9.75;;;2.35;;
72649;SDS011;61467;50.674;4.618;2023-03-23T10:50:36;6.50;;;2.35;;
72649;SDS011;61467;50.674;4.618;2023-03-23T10:53:07;6.88;;;2.78;;
72649;SDS011;61467;50.674;4.618;2023-03-23T10:55:42;7.93;;;2.10;;
72649;SDS011;61467;50.674;4.618;2023-03-23T10:58:12;7.20;;;2.30;;
72649;SDS011;61467;50.674;4.618;2023-03-23T11:00:48;6.40;;;2.70;;
72649;SDS011;61467;50.674;4.618;2023-03-23T11:03:27;6.85;;;2.35;;
72649;SDS011;61467;50.674;4.618;2023-03-23T11:06:06;7.55;;;2.53;;
72649;SDS011;61467;50.674;4.618;2023-03-23T11:08:38;8.93;;;2.37;;
72649;SDS011;61467;50.674;4.618;2023-03-23T11:11:15;6.68;;;1.98;;
72649;SDS011;61467;50.674;4.618;2023-03-23T11:13:45;7.93;;;2.80;;
72649;SDS011;61467;50.674;4.618;2023-03-23T11:16:22;8.85;;;2.70;;
72649;SDS011;61467;50.674;4.618;2023-03-23T11:18:49;6.32;;;2.40;;
72649;SDS011;61467;50.674;4.618;2023-03-23T11:21:17;8.17;;;2.53;;
72649;SDS011;61467;50.674;4.618;2023-03-23T11:23:47;8.98;;;2.90;;
72649;SDS011;61467;50.674;4.618;2023-03-23T11:26:17;7.53;;;2.58;;
72649;SDS011;61467;50.674;4.618;2023-03-23T11:28:53;7.50;;;2.67;;
72649;SDS011;61467;50.674;4.618;2023-03-23T11:31:22;7.25;;;2.53;;
72649;SDS011;61467;50.674;4.618;2023-03-23T11:33:52;7.07;;;2.53;;
72649;SDS011;61467;50.674;4.618;2023-03-23T11:36:21;10.43;;;2.70;;
72649;SDS011;61467;50.674;4.618;2023-03-23T11:38:56;6.47;;;2.33;;
72649;SDS011;61467;50.674;4.618;2023-03-23T11:41:23;7.95;;;2.30;;
72649;SDS011;61467;50.674;4.618;2023-03-23T11:43:55;9.23;;;3.00;;
72649;SDS011;61467;50.674;4.618;2023-03-23T11:46:26;7.70;;;2.43;;
72649;SDS011;61467;50.674;4.618;2023-03-23T11:49:00;8.40;;;2.45;;
72649;SDS011;61467;50.674;4.618;2023-03-23T11:51:31;8.57;;;2.03;;
72649;SDS011;61467;50.674;4.618;2023-03-23T11:54:07;8.27;;;2.25;;
72649;SDS011;61467;50.674;4.618;2023-03-23T11:56:39;7.50;;;1.75;;
72649;SDS011;61467;50.674;4.618;2023-03-23T11:59:10;8.67;;;2.63;;
72649;SDS011;61467;50.674;4.618;2023-03-23T12:01:54;8.90;;;2.28;;
72649;SDS011;61467;50.674;4.618;2023-03-23T12:04:46;7.22;;;2.25;;
72649;SDS011;61467;50.674;4.618;2023-03-23T12:07:36;6.97;;;2.28;;
72649;SDS011;61467;50.674;4.618;2023-03-23T12:10:21;10.23;;;2.13;;
72649;SDS011;61467;50.674;4.618;2023-03-23T12:12:56;7.57;;;1.83;;
72649;SDS011;61467;50.674;4.618;2023-03-23T12:15:36;6.53;;;1.88;;
72649;SDS011;61467;50.674;4.618;2023-03-23T12:18:12;6.80;;;1.80;;
72649;SDS011;61467;50.674;4.618;2023-03-23T12:20:47;7.25;;;1.77;;
72649;SDS011;61467;50.674;4.618;2023-03-23T12:23:23;7.93;;;1.80;;
72649;SDS011;61467;50.674;4.618;2023-03-23T12:25:59;6.93;;;1.57;;
72649;SDS011;61467;50.674;4.618;2023-03-23T12:28:56;6.72;;;1.52;;
72649;SDS011;61467;50.674;4.618;2023-03-23T12:32:04;5.72;;;1.60;;
72649;SDS011;61467;50.674;4.618;2023-03-23T12:34:44;8.60;;;1.92;;
72649;SDS011;61467;50.674;4.618;2023-03-23T12:40:19;7.73;;;2.20;;
72649;SDS011;61467;50.674;4.618;2023-03-23T12:43:13;9.93;;;2.20;;
72649;SDS011;61467;50.674;4.618;2023-03-23T12:45:52;8.38;;;2.42;;
72649;SDS011;61467;50.674;4.618;2023-03-23T12:48:28;9.68;;;2.22;;
72649;SDS011;61467;50.674;4.618;2023-03-23T12:51:13;9.77;;;2.10;;
72649;SDS011;61467;50.674;4.618;2023-03-23T12:53:47;8.67;;;2.30;;
72649;SDS011;61467;50.674;4.618;2023-03-23T12:56:19;11.45;;;2.92;;
72649;SDS011;61467;50.674;4.618;2023-03-23T12:58:50;10.60;;;2.38;;
72649;SDS011;61467;50.674;4.618;2023-03-23T13:01:22;9.25;;;2.70;;
72649;SDS011;61467;50.674;4.618;2023-03-23T13:03:55;11.07;;;2.85;;
72649;SDS011;61467;50.674;4.618;2023-03-23T13:06:25;12.97;;;3.13;;
72649;SDS011;61467;50.674;4.618;2023-03-23T13:08:59;8.38;;;2.67;;
72649;SDS011;61467;50.674;4.618;2023-03-23T13:11:33;9.02;;;2.85;;
72649;SDS011;61467;50.674;4.618;2023-03-23T13:14:05;9.70;;;2.75;;
72649;SDS011;61467;50.674;4.618;2023-03-23T13:16:45;6.80;;;2.53;;
72649;SDS011;61467;50.674;4.618;2023-03-23T13:19:22;8.53;;;2.33;;
72649;SDS011;61467;50.674;4.618;2023-03-23T13:21:56;9.27;;;3.05;;
72649;SDS011;61467;50.674;4.618;2023-03-23T13:24:29;9.98;;;2.70;;
72649;SDS011;61467;50.674;4.618;2023-03-23T13:26:58;7.90;;;2.83;;
72649;SDS011;61467;50.674;4.618;2023-03-23T13:29:26;10.10;;;2.70;;
72649;SDS011;61467;50.674;4.618;2023-03-23T13:32:04;10.47;;;2.57;;
72649;SDS011;61467;50.674;4.618;2023-03-23T13:34:34;9.45;;;2.55;;
72649;SDS011;61467;50.674;4.618;2023-03-23T13:37:03;7.45;;;2.17;;
72649;SDS011;61467;50.674;4.618;2023-03-23T13:39:32;7.70;;;2.45;;
72649;SDS011;61467;50.674;4.618;2023-03-23T13:42:05;9.23;;;2.22;;
72649;SDS011;61467;50.674;4.618;2023-03-23T13:44:54;9.47;;;2.20;;
72649;SDS011;61467;50.674;4.618;2023-03-23T13:47:26;6.97;;;1.77;;
72649;SDS011;61467;50.674;4.618;2023-03-23T13:49:58;6.78;;;1.98;;
72649;SDS011;61467;50.674;4.618;2023-03-23T13:52:49;7.57;;;1.92;;
72649;SDS011;61467;50.674;4.618;2023-03-23T13:55:20;7.35;;;2.42;;
72649;SDS011;61467;50.674;4.618;2023-03-23T13:58:09;9.67;;;2.00;;
72649;SDS011;61467;50.674;4.618;2023-03-23T14:00:44;10.75;;;2.50;;
72649;SDS011;61467;50.674;4.618;2023-03-23T14:03:16;10.60;;;2.20;;
72649;SDS011;61467;50.674;4.618;2023-03-23T14:05:51;11.60;;;2.35;;
72649;SDS011;61467;50.674;4.618;2023-03-23T14:08:39;9.57;;;2.63;;
72649;SDS011;61467;50.674;4.618;2023-03-23T14:11:13;7.10;;;2.07;;
72649;SDS011;61467;50.674;4.618;2023-03-23T14:13:45;9.45;;;2.25;;
72649;SDS011;61467;50.674;4.618;2023-03-23T14:16:17;8.73;;;2.47;;
72649;SDS011;61467;50.674;4.618;2023-03-23T14:18:49;9.50;;;2.60;;
72649;SDS011;61467;50.674;4.618;2023-03-23T14:21:24;7.63;;;2.90;;
72649;SDS011;61467;50.674;4.618;2023-03-23T14:23:59;7.13;;;2.30;;
72649;SDS011;61467;50.674;4.618;2023-03-23T14:26:27;9.23;;;2.42;;
72649;SDS011;61467;50.674;4.618;2023-03-23T14:28:54;8.85;;;2.65;;
72649;SDS011;61467;50.674;4.618;2023-03-23T14:31:22;8.27;;;2.03;;
72649;SDS011;61467;50.674;4.618;2023-03-23T14:33:51;7.20;;;1.80;;
72649;SDS011;61467;50.674;4.618;2023-03-23T14:36:21;9.27;;;2.17;;
72649;SDS011;61467;50.674;4.618;2023-03-23T14:38:56;10.00;;;2.00;;
72649;SDS011;61467;50.674;4.618;2023-03-23T14:41:27;9.80;;;2.13;;
72649;SDS011;61467;50.674;4.618;2023-03-23T14:43:55;7.05;;;1.80;;
72649;SDS011;61467;50.674;4.618;2023-03-23T14:46:23;8.45;;;2.10;;
72649;SDS011;61467;50.674;4.618;2023-03-23T14:48:51;8.47;;;1.77;;
72649;SDS011;61467;50.674;4.618;2023-03-23T14:51:19;7.35;;;2.00;;
72649;SDS011;61467;50.674;4.618;2023-03-23T14:53:48;6.45;;;1.63;;
72649;SDS011;61467;50.674;4.618;2023-03-23T14:56:17;11.70;;;2.15;;
72649;SDS011;61467;50.674;4.618;2023-03-23T14:58:45;7.38;;;1.60;;
72649;SDS011;61467;50.674;4.618;2023-03-23T15:01:13;7.60;;;1.57;;
72649;SDS011;61467;50.674;4.618;2023-03-23T15:03:46;7.78;;;1.63;;
72649;SDS011;61467;50.674;4.618;2023-03-23T15:06:18;8.63;;;1.50;;
72649;SDS011;61467;50.674;4.618;2023-03-23T15:08:49;7.80;;;1.92;;
72649;SDS011;61467;50.674;4.618;2023-03-23T15:11:22;8.70;;;1.90;;
72649;SDS011;61467;50.674;4.618;2023-03-23T15:13:52;8.20;;;1.87;;
72649;SDS011;61467;50.674;4.618;2023-03-23T15:16:21;9.25;;;1.70;;
72649;SDS011;61467;50.674;4.618;2023-03-23T15:18:51;8.93;;;2.42;;
72649;SDS011;61467;50.674;4.618;2023-03-23T15:21:22;14.23;;;2.90;;